Time;durP1;ratioP1;P1;durP2;ratioP2;P2;SDS_P1;SDS_P2;PMS_P1;PMS_P2;Temp;Humidity;BMP_temperature;BMP_pressure;BME280_temperature;BME280_humidity;BME280_pressure;Samples;Min_cycle;Max_cycle;Signal;HPM_P1;HPM_P2
2023/12/24 00:00:14;;;;;;;8.60;7.10;;;;;;;0.30;100.00;97700.85;109535;1251;59864;-70
2023/12/24 00:02:41;;;;;;;12.10;7.10;;;;;;;0.29;100.00;97706.27;109547;1251;59756;-70
2023/12/24 00:05:07;;;;;;;10.40;6.90;;;;;;;0.30;100.00;97704.35;109551;1251;66832;-71
2023/12/24 00:07:34;;;;;;;11.90;6.90;;;;;;;0.30;100.00;97695.45;109593;1251;59847;-70
2023/12/24 00:10:00;;;;;;;9.00;5.80;;;;;;;0.29;100.00;97693.72;109525;1251;64062;-71
2023/12/24 00:12:27;;;;;;;10.60;7.90;;;;;;;0.30;100.00;97703.99;109598;1255;59789;-71
2023/12/24 00:14:54;;;;;;;10.40;6.40;;;;;;;0.32;100.00;97707.38;109560;1251;60075;-70
2023/12/24 00:17:20;;;;;;;11.90;7.70;;;;;;;0.32;100.00;97705.95;109598;1251;67843;-70
2023/12/24 00:19:47;;;;;;;14.60;7.70;;;;;;;0.31;100.00;97709.52;109594;1250;60189;-70
2023/12/24 00:22:13;;;;;;;11.90;6.90;;;;;;;0.31;100.00;97711.81;109572;1251;64684;-70
2023/12/24 00:24:41;;;;;;;9.00;6.40;;;;;;;0.31;100.00;97710.23;109548;1251;59768;-70
2023/12/24 00:27:08;;;;;;;9.60;6.90;;;;;;;0.31;100.00;97710.90;109510;1251;59858;-70
2023/12/24 00:29:36;;;;;;;10.10;7.80;;;;;;;0.31;100.00;97708.33;109592;1251;66925;-71
2023/12/24 00:32:02;;;;;;;9.50;7.10;;;;;;;0.30;100.00;97708.70;109573;1251;61094;-71
2023/12/24 00:34:29;;;;;;;7.90;7.20;;;;;;;0.30;100.00;97704.13;109345;1251;65113;-71
2023/12/24 00:36:56;;;;;;;8.00;6.10;;;;;;;0.31;100.00;97707.61;109542;1251;59855;-70
2023/12/24 00:39:22;;;;;;;7.30;6.60;;;;;;;0.31;100.00;97716.51;109595;1251;60147;-71
2023/12/24 00:41:49;;;;;;;7.60;6.20;;;;;;;0.31;100.00;97721.58;109377;1251;66560;-71
2023/12/24 00:44:15;;;;;;;7.30;5.50;;;;;;;0.31;100.00;97724.71;109612;1251;61201;-70
2023/12/24 00:46:44;;;;;;;5.80;5.20;;;;;;;0.31;100.00;97730.13;109565;1251;65160;-70
2023/12/24 00:49:10;;;;;;;6.50;5.70;;;;;;;0.31;100.00;97736.40;109571;1251;59741;-71
2023/12/24 00:51:42;;;;;;;8.20;5.20;;;;;;;0.32;100.00;97740.95;109569;1251;59751;-71
2023/12/24 00:54:11;;;;;;;5.40;4.60;;;;;;;0.32;100.00;97747.90;109570;1250;75742;-71
2023/12/24 00:56:38;;;;;;;5.90;4.60;;;;;;;0.33;100.00;97754.30;109543;1251;60180;-70
2023/12/24 00:59:05;;;;;;;6.50;4.80;;;;;;;0.33;100.00;97756.61;109561;1251;64251;-71
2023/12/24 01:01:32;;;;;;;4.90;4.20;;;;;;;0.32;100.00;97761.37;109542;1251;59708;-71
2023/12/24 01:03:58;;;;;;;6.00;4.80;;;;;;;0.32;100.00;97763.44;109499;1251;59859;-71
2023/12/24 01:06:25;;;;;;;6.20;4.70;;;;;;;0.32;100.00;97768.01;109568;1251;67843;-71
2023/12/24 01:08:51;;;;;;;4.30;3.80;;;;;;;0.32;100.00;97770.80;109575;1251;61108;-71
2023/12/24 01:11:18;;;;;;;6.00;4.30;;;;;;;0.31;100.00;97771.35;109610;1251;65127;-69
2023/12/24 01:13:45;;;;;;;5.70;3.90;;;;;;;0.31;100.00;97772.92;109515;1251;59941;-70
2023/12/24 01:16:12;;;;;;;5.30;4.40;;;;;;;0.29;100.00;97775.64;109577;1251;59881;-69
2023/12/24 01:18:38;;;;;;;5.80;4.20;;;;;;;0.28;100.00;97770.12;109492;1251;67798;-71
2023/12/24 01:21:05;;;;;;;5.60;3.40;;;;;;;0.27;100.00;97771.55;109389;1251;60114;-71
2023/12/24 01:23:31;;;;;;;5.60;3.60;;;;;;;0.27;100.00;97778.38;109596;1251;73405;-68
2023/12/24 01:25:58;;;;;;;8.10;4.30;;;;;;;0.25;100.00;97773.90;109564;1251;59781;-71
2023/12/24 01:28:24;;;;;;;5.90;3.30;;;;;;;0.24;100.00;97775.70;109276;1251;60117;-69
2023/12/24 01:30:52;;;;;;;4.80;3.10;;;;;;;0.22;100.00;97775.95;109523;1251;66770;-70
2023/12/24 01:33:20;;;;;;;3.70;2.90;;;;;;;0.21;100.00;97776.00;109600;1251;60006;-69
2023/12/24 01:35:47;;;;;;;5.30;2.90;;;;;;;0.20;100.00;97778.48;109542;1251;65018;-69
2023/12/24 01:38:14;;;;;;;3.40;2.20;;;;;;;0.19;100.00;97780.29;109580;1251;59831;-70
2023/12/24 01:40:46;;;;;;;3.40;2.40;;;;;;;0.18;100.00;97779.61;109565;1251;60021;-70
2023/12/24 01:43:13;;;;;;;5.10;3.00;;;;;;;0.17;100.00;97786.47;109528;1251;66740;-70
2023/12/24 01:45:39;;;;;;;3.40;2.80;;;;;;;0.16;100.00;97787.73;109512;1250;60131;-69
2023/12/24 01:48:06;;;;;;;4.50;2.80;;;;;;;0.16;100.00;97788.12;109564;1251;63756;-70
2023/12/24 01:50:35;;;;;;;4.80;3.20;;;;;;;0.16;100.00;97787.07;109562;1251;59936;-70
2023/12/24 01:53:04;;;;;;;4.60;3.10;;;;;;;0.16;100.00;97789.85;109547;1252;59825;-70
2023/12/24 01:55:31;;;;;;;4.30;3.10;;;;;;;0.16;100.00;97795.61;109561;1251;67563;-70
2023/12/24 01:57:58;;;;;;;3.20;2.40;;;;;;;0.15;100.00;97793.89;109614;1251;60326;-71
2023/12/24 02:00:25;;;;;;;4.80;2.90;;;;;;;0.15;100.00;97794.45;109578;1251;65098;-70
2023/12/24 02:02:51;;;;;;;3.60;2.50;;;;;;;0.13;100.00;97800.09;109596;1250;59931;-71
2023/12/24 02:05:18;;;;;;;4.00;2.50;;;;;;;0.13;100.00;97810.94;109597;1251;59815;-71
2023/12/24 02:07:47;;;;;;;4.10;2.60;;;;;;;0.12;100.00;97814.10;109598;1251;66724;-70
2023/12/24 02:10:13;;;;;;;4.00;2.80;;;;;;;0.12;100.00;97816.94;109587;1251;60999;-71
2023/12/24 02:12:40;;;;;;;5.50;3.40;;;;;;;0.11;100.00;97816.27;109538;1251;65036;-71
2023/12/24 02:15:07;;;;;;;3.80;2.90;;;;;;;0.10;100.00;97814.38;109566;1251;59763;-71
2023/12/24 02:17:34;;;;;;;4.00;2.30;;;;;;;0.09;100.00;97820.20;108800;1251;1002439;-71
2023/12/24 02:20:00;;;;;;;2.40;2.00;;;;;;;0.08;100.00;97817.79;109577;1250;67036;-71
2023/12/24 02:22:27;;;;;;;3.90;2.90;;;;;;;0.07;100.00;97817.50;109522;1251;61394;-70
2023/12/24 02:24:55;;;;;;;4.40;2.80;;;;;;;0.07;100.00;97818.02;109561;1251;65065;-71
2023/12/24 02:27:52;;;;;;;5.30;2.90;;;;;;;0.07;100.00;97819.41;109572;1251;59797;-71
2023/12/24 02:30:22;;;;;;;5.50;2.90;;;;;;;0.06;100.00;97820.84;108924;1259;59750;-71
2023/12/24 02:32:54;;;;;;;4.00;2.20;;;;;;;0.05;100.00;97816.69;108840;1259;66942;-71
2023/12/24 02:35:21;;;;;;;3.80;2.30;;;;;;;0.05;100.00;97817.23;108194;1259;1003118;-71
2023/12/24 02:37:48;;;;;;;4.10;2.60;;;;;;;0.04;100.00;97826.15;108933;1259;65047;-70
2023/12/24 02:40:15;;;;;;;4.20;2.20;;;;;;;0.04;100.00;97825.13;108924;1259;59964;-70
2023/12/24 02:42:42;;;;;;;4.10;2.20;;;;;;;0.04;100.00;97823.75;108958;1258;59809;-70
2023/12/24 02:45:08;;;;;;;4.80;2.50;;;;;;;0.03;100.00;97824.64;108943;1259;68168;-71
2023/12/24 02:47:37;;;;;;;2.70;2.10;;;;;;;0.04;100.00;97828.27;108803;1259;61155;-70
2023/12/24 02:50:04;;;;;;;4.20;2.60;;;;;;;0.06;100.00;97829.77;108927;1259;65340;-70
2023/12/24 02:52:30;;;;;;;5.10;2.90;;;;;;;0.03;100.00;97833.53;108817;1259;60110;-69
2023/12/24 02:54:57;;;;;;;3.20;2.60;;;;;;;0.03;100.00;97833.37;108972;1259;59824;-70
2023/12/24 02:57:23;;;;;;;3.90;3.00;;;;;;;0.04;100.00;97830.38;108961;1258;66703;-70
2023/12/24 02:59:50;;;;;;;6.00;3.20;;;;;;;0.04;100.00;97832.65;108938;1259;60184;-71
2023/12/24 03:02:16;;;;;;;3.90;2.60;;;;;;;0.03;100.00;97829.19;108908;1259;65246;-71
2023/12/24 03:04:43;;;;;;;3.80;3.00;;;;;;;0.02;100.00;97827.84;108938;1259;60171;-71
2023/12/24 03:07:10;;;;;;;4.00;3.20;;;;;;;0.02;100.00;97833.05;109188;1251;59956;-71
2023/12/24 03:09:38;;;;;;;6.20;3.10;;;;;;;0.03;100.00;97833.02;109569;1251;67924;-70
2023/12/24 03:12:05;;;;;;;4.70;3.30;;;;;;;0.02;100.00;97834.44;109554;1251;61020;-70
2023/12/24 03:14:32;;;;;;;4.90;3.40;;;;;;;0.03;100.00;97832.52;109344;1251;64100;-71
2023/12/24 03:16:58;;;;;;;3.80;3.00;;;;;;;0.03;100.00;97831.27;109609;1251;59781;-71
2023/12/24 03:19:25;;;;;;;4.00;2.90;;;;;;;0.03;100.00;97833.71;109419;1251;59795;-71
2023/12/24 03:21:51;;;;;;;3.90;3.20;;;;;;;0.02;100.00;97835.68;109557;1251;66832;-71
2023/12/24 03:24:18;;;;;;;5.20;3.30;;;;;;;0.02;100.00;97833.09;109319;1251;61055;-71
2023/12/24 03:26:44;;;;;;;4.40;3.00;;;;;;;0.00;100.00;97832.97;109601;1251;65046;-71
2023/12/24 03:29:16;;;;;;;5.60;3.90;;;;;;;-0.01;100.00;97830.92;109281;1251;59890;-71
2023/12/24 03:31:42;;;;;;;4.40;3.00;;;;;;;-0.02;100.00;97830.81;109586;1251;59858;-70
2023/12/24 03:34:09;;;;;;;4.20;3.60;;;;;;;-0.03;100.00;97831.36;109597;1251;67823;-70
2023/12/24 03:36:35;;;;;;;7.10;3.40;;;;;;;-0.04;100.00;97833.84;109542;1251;60077;-71
2023/12/24 03:39:02;;;;;;;4.90;3.40;;;;;;;-0.05;100.00;97834.77;109565;1251;65281;-71
2023/12/24 03:41:29;;;;;;;3.60;3.30;;;;;;;-0.05;100.00;97835.30;109282;1251;59854;-71
2023/12/24 03:43:55;;;;;;;5.90;3.60;;;;;;;-0.05;100.00;97834.61;109617;1251;60092;-71
2023/12/24 03:46:22;;;;;;;7.60;3.60;;;;;;;-0.06;100.00;97832.52;109569;1251;61419;-71
2023/12/24 03:48:48;;;;;;;10.60;4.40;;;;;;;-0.06;100.00;97830.06;109578;1251;60967;-71
2023/12/24 03:51:15;;;;;;;5.30;3.10;;;;;;;-0.06;100.00;97829.04;109608;1251;65134;-71
2023/12/24 03:53:43;;;;;;;6.60;3.60;;;;;;;-0.07;100.00;97824.02;109588;1251;59777;-71
2023/12/24 03:56:10;;;;;;;6.30;4.20;;;;;;;-0.07;100.00;97824.19;109515;1251;96840;-71
2023/12/24 03:58:38;;;;;;;7.30;4.60;;;;;;;-0.07;100.00;97822.61;109357;1251;65537;-71
2023/12/24 04:01:08;;;;;;;7.80;4.40;;;;;;;-0.07;100.00;97829.95;109517;1251;61121;-71
2023/12/24 04:03:35;;;;;;;6.60;4.00;;;;;;;-0.07;100.00;97829.77;109532;1251;65012;-71
2023/12/24 04:06:10;;;;;;;6.40;4.20;;;;;;;-0.06;100.00;97830.59;109245;1251;59926;-70
2023/12/24 04:08:36;;;;;;;7.60;5.00;;;;;;;-0.04;100.00;97833.67;109559;1251;59647;-70
2023/12/24 04:11:10;;;;;;;6.80;4.70;;;;;;;-0.05;100.00;97834.04;109567;1251;67840;-70
2023/12/24 04:13:37;;;;;;;6.70;5.60;;;;;;;-0.04;100.00;97832.48;109574;1251;61039;-71
2023/12/24 04:16:04;;;;;;;8.10;5.20;;;;;;;-0.03;100.00;97832.08;109520;1251;65018;-70
2023/12/24 04:18:30;;;;;;;7.30;5.30;;;;;;;-0.02;100.00;97830.11;109547;1250;59835;-70
2023/12/24 04:20:57;;;;;;;7.20;5.60;;;;;;;-0.02;100.00;97827.49;109407;1251;59941;-70
2023/12/24 04:23:23;;;;;;;7.00;6.00;;;;;;;-0.02;100.00;97830.27;109589;1251;66788;-70
2023/12/24 04:25:50;;;;;;;9.20;6.20;;;;;;;-0.02;100.00;97830.61;109572;1251;59829;-71
2023/12/24 04:28:17;;;;;;;8.50;6.00;;;;;;;-0.02;100.00;97829.03;109586;1251;65064;-71
2023/12/24 04:30:43;;;;;;;8.50;6.50;;;;;;;-0.02;100.00;97827.67;109561;1251;59847;-70
2023/12/24 04:33:10;;;;;;;8.30;6.50;;;;;;;-0.02;100.00;97828.67;109569;1251;59916;-71
2023/12/24 04:35:37;;;;;;;8.10;7.30;;;;;;;-0.01;100.00;97827.77;109584;1250;68020;-71
2023/12/24 04:38:03;;;;;;;8.20;6.60;;;;;;;-0.01;100.00;97829.16;109508;1251;60100;-71
2023/12/24 04:40:30;;;;;;;8.10;6.10;;;;;;;0.00;100.00;97832.98;109591;1251;64143;-71
2023/12/24 04:42:56;;;;;;;7.60;6.20;;;;;;;0.00;100.00;97833.85;109535;1251;60051;-71
2023/12/24 04:45:23;;;;;;;8.70;6.00;;;;;;;0.00;100.00;97830.70;109353;1251;59878;-72
2023/12/24 04:47:53;;;;;;;7.70;5.70;;;;;;;0.01;100.00;97832.98;109587;1251;67875;-71
2023/12/24 04:50:19;;;;;;;;;;;;;;;0.00;100.00;97831.73;109507;1251;61041;-72
2023/12/24 04:52:46;;;;;;;7.10;5.90;;;;;;;-0.00;100.00;97830.37;109557;1251;59903;-71
2023/12/24 04:55:12;;;;;;;7.00;5.30;;;;;;;-0.00;100.00;97828.80;109552;1251;59914;-71
2023/12/24 04:57:39;;;;;;;8.30;5.90;;;;;;;0.01;100.00;97827.91;109553;1251;59792;-71
2023/12/24 05:00:06;;;;;;;7.80;5.10;;;;;;;0.01;100.00;97824.37;109582;1251;66805;-70
2023/12/24 05:02:33;;;;;;;8.50;5.60;;;;;;;0.02;100.00;97823.12;109587;1251;60981;-71
2023/12/24 05:05:03;;;;;;;7.20;5.60;;;;;;;0.03;100.00;97832.35;109552;1251;64227;-71
2023/12/24 05:07:30;;;;;;;6.70;5.40;;;;;;;0.02;100.00;97832.05;109492;1251;59884;-71
2023/12/24 05:09:57;;;;;;;7.20;5.40;;;;;;;0.01;100.00;97829.45;109552;1251;59912;-71
2023/12/24 05:12:23;;;;;;;7.40;5.80;;;;;;;0.01;100.00;97831.91;109562;1250;68131;-70
2023/12/24 05:14:50;;;;;;;7.40;5.20;;;;;;;0.01;100.00;97834.85;109554;1251;60160;-70
2023/12/24 05:17:16;;;;;;;7.40;5.50;;;;;;;0.02;100.00;97832.04;109576;1251;73059;-71
2023/12/24 05:19:43;;;;;;;5.90;5.40;;;;;;;0.02;100.00;97829.73;109549;1251;60011;-71
2023/12/24 05:22:09;;;;;;;7.20;5.90;;;;;;;0.03;100.00;97826.04;109601;1251;59881;-70
2023/12/24 05:24:36;;;;;;;7.40;6.10;;;;;;;0.04;100.00;97824.44;109411;1251;67757;-70
2023/12/24 05:27:02;;;;;;;7.60;6.50;;;;;;;0.04;100.00;97827.91;109520;1251;61249;-71
2023/12/24 05:29:29;;;;;;;8.60;7.20;;;;;;;0.05;100.00;97826.84;109519;1251;65027;-70
2023/12/24 05:31:57;;;;;;;8.60;7.10;;;;;;;0.05;100.00;97826.64;109538;1255;59834;-70
2023/12/24 05:34:24;;;;;;;8.80;7.90;;;;;;;0.06;100.00;97826.27;109591;1251;59773;-71
2023/12/24 05:36:50;;;;;;;9.40;8.40;;;;;;;0.06;100.00;97826.23;109582;1251;76343;-71
2023/12/24 05:39:17;;;;;;;13.50;9.00;;;;;;;0.07;100.00;97825.70;109609;1251;61261;-71
2023/12/24 05:41:47;;;;;;;10.60;9.00;;;;;;;0.08;100.00;97824.61;109579;1251;63981;-71
2023/12/24 05:44:13;;;;;;;9.60;8.60;;;;;;;0.08;100.00;97824.40;109530;1251;59819;-72
2023/12/24 05:46:40;;;;;;;12.70;9.40;;;;;;;0.10;100.00;97834.65;109611;1251;59864;-71
2023/12/24 05:49:07;;;;;;;12.40;9.50;;;;;;;0.11;100.00;97837.76;109515;1251;68228;-71
2023/12/24 05:51:34;;;;;;;11.40;8.70;;;;;;;0.12;100.00;97843.30;109411;1251;60070;-71
2023/12/24 05:54:00;;;;;;;12.00;9.70;;;;;;;0.12;100.00;97845.54;109544;1251;64770;-71
2023/12/24 05:56:27;;;;;;;12.70;9.80;;;;;;;0.14;100.00;97845.49;109579;1251;60074;-71
2023/12/24 05:58:53;;;;;;;13.10;9.60;;;;;;;0.15;100.00;97847.89;109549;1251;59853;-71
2023/12/24 06:01:20;;;;;;;12.70;10.20;;;;;;;0.15;100.00;97848.22;109559;1251;67868;-71
2023/12/24 06:03:47;;;;;;;14.50;10.40;;;;;;;0.18;100.00;97851.21;109585;1251;60655;-72
2023/12/24 06:06:14;;;;;;;12.10;9.70;;;;;;;0.21;100.00;97853.55;109578;1251;62785;-71
2023/12/24 06:08:40;;;;;;;13.90;9.80;;;;;;;0.22;100.00;97853.14;109531;1251;59820;-72
2023/12/24 06:11:15;;;;;;;11.30;10.10;;;;;;;0.23;100.00;97854.87;109564;1251;59838;-71
2023/12/24 06:13:41;;;;;;;9.60;8.50;;;;;;;0.23;100.00;97853.97;109520;1250;67911;-71
2023/12/24 06:16:08;;;;;;;9.10;8.10;;;;;;;0.24;100.00;97854.48;109593;1250;59994;-71
2023/12/24 06:18:34;;;;;;;9.50;7.80;;;;;;;0.23;100.00;97855.73;109382;1251;64568;-71
2023/12/24 06:21:02;;;;;;;11.90;8.30;;;;;;;0.23;100.00;97859.92;109546;1251;59869;-72
2023/12/24 06:23:28;;;;;;;9.80;8.80;;;;;;;0.22;100.00;97863.81;109587;1251;60320;-72
2023/12/24 06:25:55;;;;;;;10.80;8.80;;;;;;;0.23;100.00;97865.70;109399;1251;67069;-71
2023/12/24 06:28:21;;;;;;;11.30;8.80;;;;;;;0.24;100.00;97865.13;109616;1251;60218;-72
2023/12/24 06:30:48;;;;;;;15.00;10.30;;;;;;;0.24;100.00;97859.18;109587;1251;65098;-72
2023/12/24 06:33:14;;;;;;;12.20;9.10;;;;;;;0.25;100.00;97859.84;109517;1251;59686;-71
2023/12/24 06:35:41;;;;;;;14.10;9.30;;;;;;;0.27;100.00;97859.59;109520;1251;60120;-71
2023/12/24 06:38:08;;;;;;;12.60;8.30;;;;;;;0.30;100.00;97860.48;109591;1251;75793;-71
2023/12/24 06:40:34;;;;;;;13.50;9.30;;;;;;;0.31;100.00;97859.91;109281;1251;60279;-70
2023/12/24 06:43:02;;;;;;;13.70;9.90;;;;;;;0.32;100.00;97858.31;109552;1251;64311;-70
2023/12/24 06:45:28;;;;;;;15.80;9.50;;;;;;;0.31;100.00;97857.10;109536;1251;59682;-71
2023/12/24 06:47:55;;;;;;;16.10;9.80;;;;;;;0.32;100.00;97852.02;109555;1251;59988;-71
2023/12/24 06:50:22;;;;;;;12.50;9.60;;;;;;;0.34;100.00;97849.83;109590;1251;66780;-71
2023/12/24 06:52:48;;;;;;;14.90;10.20;;;;;;;0.37;100.00;97846.74;109611;1250;61012;-70
2023/12/24 06:55:15;;;;;;;17.20;11.70;;;;;;;0.39;100.00;97844.55;109558;1251;65175;-70
2023/12/24 06:57:41;;;;;;;14.50;10.10;;;;;;;0.41;100.00;97850.20;109554;1251;59767;-70
2023/12/24 07:00:09;;;;;;;14.60;9.90;;;;;;;0.44;100.00;97853.41;109588;1251;59918;-71
2023/12/24 07:02:35;;;;;;;13.70;10.00;;;;;;;0.48;100.00;97856.59;109316;1251;67242;-71
2023/12/24 07:05:02;;;;;;;11.50;8.40;;;;;;;0.49;100.00;97857.54;109574;1251;60019;-71
2023/12/24 07:07:29;;;;;;;9.90;8.10;;;;;;;0.50;100.00;97858.20;109582;1251;64196;-71
2023/12/24 07:09:56;;;;;;;10.80;8.40;;;;;;;0.54;100.00;97855.43;109506;1251;59915;-71
2023/12/24 07:12:22;;;;;;;11.30;8.10;;;;;;;0.58;100.00;97850.67;109566;1251;59998;-70
2023/12/24 07:14:49;;;;;;;10.60;7.80;;;;;;;0.62;100.00;97853.11;109622;1251;66831;-71
2023/12/24 07:17:15;;;;;;;9.70;7.40;;;;;;;0.64;100.00;97849.52;109294;1251;60382;-71
2023/12/24 07:19:42;;;;;;;8.90;7.80;;;;;;;0.68;100.00;97845.85;109560;1251;65265;-73
2023/12/24 07:22:08;;;;;;;10.30;8.30;;;;;;;0.73;100.00;97848.78;109587;1251;59735;-72
2023/12/24 07:24:36;;;;;;;14.40;9.80;;;;;;;0.77;100.00;97842.98;109601;1251;59656;-71
2023/12/24 07:27:02;;;;;;;14.10;10.70;;;;;;;0.81;100.00;97847.21;108835;1251;1003085;-72
2023/12/24 07:29:29;;;;;;;17.00;13.20;;;;;;;0.84;100.00;97843.74;109590;1251;60979;-72
2023/12/24 07:31:55;;;;;;;15.30;11.80;;;;;;;0.87;100.00;97845.50;109593;1251;64192;-71
2023/12/24 07:34:22;;;;;;;13.90;11.40;;;;;;;0.92;100.00;97843.03;109319;1251;59762;-71
2023/12/24 07:36:48;;;;;;;11.10;9.90;;;;;;;0.97;100.00;97840.50;109588;1251;59697;-71
2023/12/24 07:39:15;;;;;;;13.10;10.30;;;;;;;1.03;100.00;97834.83;109591;1251;66740;-72
2023/12/24 07:41:42;;;;;;;11.50;10.00;;;;;;;1.08;100.00;97832.80;109508;1251;60236;-71
2023/12/24 07:44:09;;;;;;;12.80;11.00;;;;;;;1.14;100.00;97832.88;109519;1251;63992;-71
2023/12/24 07:46:36;;;;;;;14.00;12.00;;;;;;;1.20;100.00;97833.98;109536;1251;59701;-71
2023/12/24 07:49:02;;;;;;;12.40;10.30;;;;;;;1.27;100.00;97833.33;109570;1251;59884;-71
2023/12/24 07:51:29;;;;;;;14.50;11.90;;;;;;;1.30;100.00;97830.88;109568;1251;67835;-71
2023/12/24 07:53:55;;;;;;;13.40;12.00;;;;;;;1.34;100.00;97823.19;109571;1251;60847;-71
2023/12/24 07:56:22;;;;;;;13.90;10.90;;;;;;;1.38;100.00;97816.54;109537;1251;65213;-71
2023/12/24 07:58:48;;;;;;;13.60;10.40;;;;;;;1.40;100.00;97814.11;109585;1251;59806;-71
2023/12/24 08:01:15;;;;;;;10.20;9.10;;;;;;;1.44;100.00;97813.75;109543;1251;60027;-71
2023/12/24 08:03:41;;;;;;;11.20;8.70;;;;;;;1.49;100.00;97809.66;109582;1251;67895;-72
2023/12/24 08:06:08;;;;;;;10.40;9.40;;;;;;;1.56;100.00;97804.77;109576;1251;61395;-71
2023/12/24 08:08:35;;;;;;;10.60;9.50;;;;;;;1.63;100.00;97810.23;109527;1251;63659;-72
2023/12/24 08:11:01;;;;;;;13.10;10.40;;;;;;;1.67;100.00;97806.33;109505;1251;59992;-72
2023/12/24 08:13:28;;;;;;;16.20;13.90;;;;;;;1.69;100.00;97821.25;109575;1251;59788;-72
2023/12/24 08:15:55;;;;;;;14.80;13.20;;;;;;;1.71;100.00;97820.66;109621;1250;66751;-71
2023/12/24 08:18:21;;;;;;;13.90;12.40;;;;;;;1.71;100.00;97819.09;109614;1251;59992;-71
2023/12/24 08:20:48;;;;;;;13.90;12.20;;;;;;;1.71;100.00;97820.13;109599;1251;64050;-71
2023/12/24 08:23:16;;;;;;;13.90;12.50;;;;;;;1.72;100.00;97821.46;109423;1251;59780;-72
2023/12/24 08:25:42;;;;;;;13.70;11.90;;;;;;;1.74;100.00;97821.74;109567;1251;59788;-72
2023/12/24 08:28:09;;;;;;;14.20;12.70;;;;;;;1.74;100.00;97821.22;109588;1251;67864;-72
2023/12/24 08:30:35;;;;;;;12.90;11.60;;;;;;;1.76;100.00;97820.04;109566;1251;60085;-72
2023/12/24 08:33:02;;;;;;;14.70;11.70;;;;;;;1.78;100.00;97824.20;109545;1251;63972;-72
2023/12/24 08:35:29;;;;;;;12.10;10.70;;;;;;;1.79;100.00;97819.20;109557;1251;60114;-72
2023/12/24 08:37:55;;;;;;;11.50;10.40;;;;;;;1.80;100.00;97823.55;109640;1251;59859;-72
2023/12/24 08:40:23;;;;;;;11.60;10.50;;;;;;;1.81;100.00;97824.72;109584;1251;67771;-72
2023/12/24 08:42:50;;;;;;;10.10;9.10;;;;;;;1.83;100.00;97821.14;109578;1251;61014;-72
2023/12/24 08:45:16;;;;;;;11.50;10.30;;;;;;;1.84;100.00;97817.91;109544;1251;64125;-72
2023/12/24 08:47:43;;;;;;;10.00;9.00;;;;;;;1.90;100.00;97811.11;109571;1250;59995;-72
2023/12/24 08:50:09;;;;;;;10.60;9.50;;;;;;;1.96;100.00;97809.60;109584;1250;60692;-71
2023/12/24 08:52:36;;;;;;;12.80;11.50;;;;;;;1.99;100.00;97812.77;109575;1251;66699;-72
2023/12/24 08:55:03;;;;;;;12.00;10.70;;;;;;;2.04;100.00;97815.31;109579;1251;60007;-72
2023/12/24 08:57:29;;;;;;;11.90;10.60;;;;;;;2.08;100.00;97814.59;109553;1251;65169;-73
2023/12/24 08:59:56;;;;;;;16.10;14.60;;;;;;;2.15;100.00;97813.35;109529;1251;60220;-72
2023/12/24 09:02:23;;;;;;;18.60;16.90;;;;;;;2.25;100.00;97811.06;108830;1251;1002462;-72
2023/12/24 09:04:49;;;;;;;23.50;21.00;;;;;;;2.29;100.00;97813.29;109537;1251;67738;-71
2023/12/24 09:07:16;;;;;;;41.30;30.40;;;;;;;2.27;100.00;97817.98;109549;1251;60018;-71
2023/12/24 09:09:43;;;;;;;40.10;32.50;;;;;;;2.26;100.00;97812.23;109491;1251;63981;-72
2023/12/24 09:12:10;;;;;;;43.10;33.10;;;;;;;2.28;100.00;97814.61;109573;1250;59900;-72
2023/12/24 09:14:37;;;;;;;58.10;42.70;;;;;;;2.28;100.00;97813.56;109192;1251;1002319;-72
2023/12/24 09:17:03;;;;;;;57.30;40.50;;;;;;;2.32;100.00;97815.10;109573;1250;68207;-71
2023/12/24 09:19:30;;;;;;;47.90;33.10;;;;;;;2.39;100.00;97819.25;109585;1251;60278;-71
2023/12/24 09:21:56;;;;;;;35.30;26.20;;;;;;;2.48;100.00;97814.06;109562;1251;64199;-72
2023/12/24 09:24:23;;;;;;;31.00;24.90;;;;;;;2.55;100.00;97815.08;109546;1251;59890;-72
2023/12/24 09:26:49;;;;;;;62.00;52.50;;;;;;;2.58;100.00;97814.58;109593;1251;59770;-73
2023/12/24 09:29:21;;;;;;;48.10;38.80;;;;;;;2.55;100.00;97815.44;109367;1256;68122;-72
2023/12/24 09:31:48;;;;;;;38.60;34.90;;;;;;;2.51;100.00;97809.17;109572;1250;60139;-72
2023/12/24 09:34:14;;;;;;;41.40;32.50;;;;;;;2.41;100.00;97794.63;109544;1251;65129;-72
2023/12/24 09:36:41;;;;;;;36.40;26.90;;;;;;;2.25;100.00;97785.98;109578;1251;59748;-72
2023/12/24 09:39:07;;;;;;;22.80;17.80;;;;;;;2.16;100.00;97791.36;109328;1251;60163;-71
2023/12/24 09:41:34;;;;;;;20.90;15.10;;;;;;;2.02;100.00;97794.40;109558;1251;67872;-72
2023/12/24 09:44:01;;;;;;;31.80;28.50;;;;;;;1.94;100.00;97781.83;109489;1251;60115;-70
2023/12/24 09:46:27;;;;;;;26.50;21.90;;;;;;;1.86;100.00;97776.11;109505;1251;65015;-71
2023/12/24 09:48:54;;;;;;;22.00;18.60;;;;;;;1.81;100.00;97777.10;109510;1251;59747;-71
2023/12/24 09:51:21;;;;;;;17.70;14.90;;;;;;;1.81;100.00;97776.37;109629;1251;59982;-72
2023/12/24 09:53:49;;;;;;;15.90;13.90;;;;;;;1.87;100.00;97768.54;109426;1250;67771;-71
2023/12/24 09:56:15;;;;;;;18.30;14.90;;;;;;;1.93;100.00;97765.09;109571;1251;60228;-71
2023/12/24 09:58:45;;;;;;;21.10;15.30;;;;;;;1.99;100.00;97764.25;109542;1251;65285;-71
2023/12/24 10:01:11;;;;;;;19.90;17.10;;;;;;;2.02;100.00;97763.20;109580;1251;60056;-72
2023/12/24 10:03:38;;;;;;;22.70;17.20;;;;;;;2.06;100.00;97762.46;109558;1251;59811;-71
2023/12/24 10:06:08;;;;;;;23.70;16.90;;;;;;;2.13;100.00;97754.75;109557;1251;67821;-72
2023/12/24 10:08:35;;;;;;;22.90;16.10;;;;;;;2.19;100.00;97757.06;109578;1254;59818;-72
2023/12/24 10:11:12;;;;;;;24.80;17.40;;;;;;;2.25;100.00;97754.98;109537;1251;65054;-72
2023/12/24 10:13:39;;;;;;;21.80;17.50;;;;;;;2.34;100.00;97748.38;109566;1251;60176;-72
2023/12/24 10:16:09;;;;;;;36.60;30.80;;;;;;;2.41;100.00;97737.13;109437;1251;59831;-72
2023/12/24 10:18:36;;;;;;;26.90;21.50;;;;;;;2.48;100.00;97732.55;109428;1251;67574;-72
2023/12/24 10:21:06;;;;;;;27.10;21.60;;;;;;;2.53;100.00;97732.61;109600;1250;61015;-71
2023/12/24 10:23:33;;;;;;;34.60;30.80;;;;;;;2.57;100.00;97728.52;109559;1251;65229;-72
2023/12/24 10:26:04;;;;;;;30.90;26.70;;;;;;;2.60;100.00;97726.43;109526;1251;59787;-71
2023/12/24 10:28:32;;;;;;;25.90;21.10;;;;;;;2.61;100.00;97719.21;109600;1251;59659;-71
2023/12/24 10:31:07;;;;;;;24.30;19.60;;;;;;;2.62;100.00;97709.66;109571;1251;67819;-71
2023/12/24 10:33:38;;;;;;;23.70;20.50;;;;;;;2.62;100.00;97698.08;109328;1251;61132;-72
2023/12/24 10:36:06;;;;;;;24.80;20.80;;;;;;;2.65;100.00;97696.89;109522;1251;65105;-71
2023/12/24 10:38:34;;;;;;;27.90;22.20;;;;;;;2.66;100.00;97693.33;109399;1251;59978;-72
2023/12/24 10:41:02;;;;;;;24.80;21.40;;;;;;;2.66;100.00;97694.02;109522;1251;59723;-73
2023/12/24 10:43:29;;;;;;;28.30;22.00;;;;;;;2.69;100.00;97701.56;109566;1250;66948;-72
2023/12/24 10:45:56;;;;;;;27.10;22.40;;;;;;;2.71;100.00;97703.21;109586;1251;61573;-72
2023/12/24 10:48:22;;;;;;;26.80;21.50;;;;;;;2.70;100.00;97706.60;109572;1251;64102;-73
2023/12/24 10:50:50;;;;;;;25.80;20.40;;;;;;;2.71;100.00;97702.86;109592;1251;59831;-73
2023/12/24 10:53:16;;;;;;;25.10;20.50;;;;;;;2.75;100.00;97696.17;109578;1251;59598;-73
2023/12/24 10:56:08;;;;;;;24.00;21.10;;;;;;;2.79;100.00;97689.30;109594;1251;68207;-73
2023/12/24 10:58:50;;;;;;;28.70;24.50;;;;;;;2.81;100.00;97687.92;108974;1259;61123;-72
2023/12/24 11:01:17;;;;;;;29.00;25.60;;;;;;;2.85;100.00;97688.40;108945;1259;65013;-73
2023/12/24 11:03:49;;;;;;;29.70;26.30;;;;;;;2.90;100.00;97683.03;108939;1259;59786;-71
2023/12/24 11:06:38;;;;;;;28.60;25.60;;;;;;;2.99;100.00;97676.92;108940;1259;59949;-72
2023/12/24 11:09:16;;;;;;;29.30;26.10;;;;;;;3.04;100.00;97675.04;108983;1259;67080;-72
2023/12/24 11:11:53;;;;;;;29.70;25.70;;;;;;;3.06;100.00;97678.58;108936;1259;60198;-71
2023/12/24 11:14:39;;;;;;;31.80;27.60;;;;;;;3.09;100.00;97674.41;108901;1259;65148;-71
2023/12/24 11:17:08;;;;;;;33.80;28.20;;;;;;;3.14;100.00;97676.92;108904;1259;59853;-73